sensor_id;sensor_type;location;lat;lon;timestamp;P1;durP1;ratioP1;P2;durP2;ratioP2
9072;SDS011;4572;41.642;25.370;2023-07-22T00:00:09;7.65;;;5.18;;
9072;SDS011;4572;41.642;25.370;2023-07-22T00:02:39;8.85;;;5.38;;
9072;SDS011;4572;41.642;25.370;2023-07-22T00:05:04;6.47;;;4.97;;
9072;SDS011;4572;41.642;25.370;2023-07-22T00:07:30;6.45;;;5.35;;
9072;SDS011;4572;41.642;25.370;2023-07-22T00:09:56;6.53;;;5.47;;
9072;SDS011;4572;41.642;25.370;2023-07-22T00:12:21;7.00;;;5.50;;
9072;SDS011;4572;41.642;25.370;2023-07-22T00:14:51;6.97;;;5.50;;
9072;SDS011;4572;41.642;25.370;2023-07-22T00:17:17;6.43;;;4.90;;
9072;SDS011;4572;41.642;25.370;2023-07-22T00:19:42;7.20;;;5.70;;
9072;SDS011;4572;41.642;25.370;2023-07-22T00:22:08;7.85;;;5.63;;
9072;SDS011;4572;41.642;25.370;2023-07-22T00:24:33;8.77;;;5.85;;
9072;SDS011;4572;41.642;25.370;2023-07-22T00:26:59;9.70;;;5.75;;
9072;SDS011;4572;41.642;25.370;2023-07-22T00:29:24;6.43;;;5.68;;
9072;SDS011;4572;41.642;25.370;2023-07-22T00:31:50;6.07;;;5.47;;
9072;SDS011;4572;41.642;25.370;2023-07-22T00:34:15;7.55;;;5.70;;
9072;SDS011;4572;41.642;25.370;2023-07-22T00:36:41;7.13;;;6.43;;
9072;SDS011;4572;41.642;25.370;2023-07-22T00:39:07;7.55;;;5.80;;
9072;SDS011;4572;41.642;25.370;2023-07-22T00:41:32;6.70;;;5.75;;
9072;SDS011;4572;41.642;25.370;2023-07-22T00:43:58;8.60;;;6.25;;
9072;SDS011;4572;41.642;25.370;2023-07-22T00:46:23;7.93;;;5.75;;
9072;SDS011;4572;41.642;25.370;2023-07-22T00:48:49;8.00;;;5.80;;
9072;SDS011;4572;41.642;25.370;2023-07-22T00:51:15;7.05;;;5.65;;
9072;SDS011;4572;41.642;25.370;2023-07-22T00:53:41;7.07;;;6.22;;
9072;SDS011;4572;41.642;25.370;2023-07-22T00:56:07;7.10;;;6.18;;
9072;SDS011;4572;41.642;25.370;2023-07-22T00:58:33;6.88;;;6.18;;
9072;SDS011;4572;41.642;25.370;2023-07-22T01:00:59;10.35;;;6.32;;
9072;SDS011;4572;41.642;25.370;2023-07-22T01:03:24;8.00;;;5.95;;
9072;SDS011;4572;41.642;25.370;2023-07-22T01:05:50;7.40;;;6.25;;
9072;SDS011;4572;41.642;25.370;2023-07-22T01:08:17;8.88;;;5.95;;
9072;SDS011;4572;41.642;25.370;2023-07-22T01:10:42;7.07;;;5.85;;
9072;SDS011;4572;41.642;25.370;2023-07-22T01:13:09;7.13;;;6.40;;
9072;SDS011;4572;41.642;25.370;2023-07-22T01:15:34;7.47;;;5.95;;
9072;SDS011;4572;41.642;25.370;2023-07-22T01:18:00;8.10;;;6.50;;
9072;SDS011;4572;41.642;25.370;2023-07-22T01:20:28;9.00;;;6.93;;
9072;SDS011;4572;41.642;25.370;2023-07-22T01:22:54;8.60;;;6.35;;
9072;SDS011;4572;41.642;25.370;2023-07-22T01:25:21;7.70;;;6.28;;
9072;SDS011;4572;41.642;25.370;2023-07-22T01:27:47;7.97;;;6.47;;
9072;SDS011;4572;41.642;25.370;2023-07-22T01:30:13;10.85;;;6.57;;
9072;SDS011;4572;41.642;25.370;2023-07-22T01:32:39;8.85;;;6.68;;
9072;SDS011;4572;41.642;25.370;2023-07-22T01:35:05;8.27;;;6.85;;
9072;SDS011;4572;41.642;25.370;2023-07-22T01:37:33;7.45;;;5.95;;
9072;SDS011;4572;41.642;25.370;2023-07-22T01:39:59;11.75;;;5.97;;
9072;SDS011;4572;41.642;25.370;2023-07-22T01:42:25;7.90;;;5.45;;
9072;SDS011;4572;41.642;25.370;2023-07-22T01:44:50;7.53;;;6.60;;
9072;SDS011;4572;41.642;25.370;2023-07-22T01:47:16;8.18;;;7.15;;
9072;SDS011;4572;41.642;25.370;2023-07-22T01:49:43;8.82;;;6.75;;
9072;SDS011;4572;41.642;25.370;2023-07-22T01:52:09;8.40;;;6.45;;
9072;SDS011;4572;41.642;25.370;2023-07-22T01:54:34;8.05;;;6.32;;
9072;SDS011;4572;41.642;25.370;2023-07-22T01:57:00;6.60;;;5.85;;
9072;SDS011;4572;41.642;25.370;2023-07-22T01:59:25;6.65;;;5.88;;
9072;SDS011;4572;41.642;25.370;2023-07-22T02:01:51;7.03;;;6.13;;
9072;SDS011;4572;41.642;25.370;2023-07-22T02:04:17;11.05;;;6.70;;
9072;SDS011;4572;41.642;25.370;2023-07-22T02:06:42;7.68;;;6.07;;
9072;SDS011;4572;41.642;25.370;2023-07-22T02:09:08;7.95;;;6.68;;
9072;SDS011;4572;41.642;25.370;2023-07-22T02:11:36;8.30;;;6.38;;
9072;SDS011;4572;41.642;25.370;2023-07-22T02:14:02;9.07;;;6.82;;
9072;SDS011;4572;41.642;25.370;2023-07-22T02:16:29;7.63;;;6.47;;
9072;SDS011;4572;41.642;25.370;2023-07-22T02:18:54;7.45;;;6.57;;
9072;SDS011;4572;41.642;25.370;2023-07-22T02:21:20;7.55;;;6.80;;
9072;SDS011;4572;41.642;25.370;2023-07-22T02:23:45;7.38;;;6.65;;
9072;SDS011;4572;41.642;25.370;2023-07-22T02:26:11;9.80;;;6.65;;
9072;SDS011;4572;41.642;25.370;2023-07-22T02:28:36;7.50;;;6.55;;
9072;SDS011;4572;41.642;25.370;2023-07-22T02:31:02;9.00;;;6.65;;
9072;SDS011;4572;41.642;25.370;2023-07-22T02:33:32;7.32;;;6.57;;
9072;SDS011;4572;41.642;25.370;2023-07-22T02:35:58;8.05;;;6.22;;
9072;SDS011;4572;41.642;25.370;2023-07-22T02:38:23;6.63;;;5.80;;
9072;SDS011;4572;41.642;25.370;2023-07-22T02:40:49;8.50;;;7.05;;
9072;SDS011;4572;41.642;25.370;2023-07-22T02:43:14;7.15;;;6.45;;
9072;SDS011;4572;41.642;25.370;2023-07-22T02:45:40;7.07;;;6.38;;
9072;SDS011;4572;41.642;25.370;2023-07-22T02:48:06;9.02;;;6.97;;
9072;SDS011;4572;41.642;25.370;2023-07-22T02:50:32;7.28;;;6.22;;
9072;SDS011;4572;41.642;25.370;2023-07-22T02:52:57;7.28;;;5.68;;
9072;SDS011;4572;41.642;25.370;2023-07-22T02:55:23;7.43;;;6.25;;
9072;SDS011;4572;41.642;25.370;2023-07-22T02:57:49;6.82;;;6.13;;
9072;SDS011;4572;41.642;25.370;2023-07-22T03:00:15;9.40;;;7.30;;
9072;SDS011;4572;41.642;25.370;2023-07-22T03:02:54;7.85;;;5.85;;
9072;SDS011;4572;41.642;25.370;2023-07-22T03:05:27;10.15;;;7.38;;
9072;SDS011;4572;41.642;25.370;2023-07-22T03:07:56;8.00;;;6.60;;
9072;SDS011;4572;41.642;25.370;2023-07-22T03:10:22;9.82;;;6.53;;
9072;SDS011;4572;41.642;25.370;2023-07-22T03:12:47;8.25;;;7.22;;
9072;SDS011;4572;41.642;25.370;2023-07-22T03:15:13;9.05;;;7.07;;
9072;SDS011;4572;41.642;25.370;2023-07-22T03:17:39;9.40;;;6.88;;
9072;SDS011;4572;41.642;25.370;2023-07-22T03:20:07;8.57;;;6.63;;
9072;SDS011;4572;41.642;25.370;2023-07-22T03:22:43;8.45;;;6.75;;
9072;SDS011;4572;41.642;25.370;2023-07-22T03:25:09;9.25;;;6.93;;
9072;SDS011;4572;41.642;25.370;2023-07-22T03:27:36;7.43;;;6.55;;
9072;SDS011;4572;41.642;25.370;2023-07-22T03:30:02;10.45;;;6.55;;
9072;SDS011;4572;41.642;25.370;2023-07-22T03:32:40;9.18;;;7.05;;
9072;SDS011;4572;41.642;25.370;2023-07-22T03:35:09;9.18;;;6.75;;
9072;SDS011;4572;41.642;25.370;2023-07-22T03:37:36;7.65;;;6.45;;
9072;SDS011;4572;41.642;25.370;2023-07-22T03:40:02;8.00;;;6.68;;
9072;SDS011;4572;41.642;25.370;2023-07-22T03:42:32;8.27;;;6.70;;
9072;SDS011;4572;41.642;25.370;2023-07-22T03:44:59;8.00;;;7.03;;
9072;SDS011;4572;41.642;25.370;2023-07-22T03:47:24;8.63;;;6.75;;
9072;SDS011;4572;41.642;25.370;2023-07-22T03:49:49;10.60;;;6.95;;
9072;SDS011;4572;41.642;25.370;2023-07-22T03:52:15;7.32;;;6.40;;
9072;SDS011;4572;41.642;25.370;2023-07-22T03:54:43;7.60;;;6.43;;
9072;SDS011;4572;41.642;25.370;2023-07-22T03:57:09;8.93;;;6.55;;
9072;SDS011;4572;41.642;25.370;2023-07-22T03:59:35;8.50;;;6.95;;
9072;SDS011;4572;41.642;25.370;2023-07-22T04:02:00;7.88;;;6.75;;
9072;SDS011;4572;41.642;25.370;2023-07-22T04:04:26;8.18;;;7.07;;
9072;SDS011;4572;41.642;25.370;2023-07-22T04:06:52;8.18;;;5.90;;
9072;SDS011;4572;41.642;25.370;2023-07-22T04:09:17;11.45;;;7.32;;
9072;SDS011;4572;41.642;25.370;2023-07-22T04:11:43;8.40;;;7.45;;
9072;SDS011;4572;41.642;25.370;2023-07-22T04:14:08;8.40;;;6.72;;
9072;SDS011;4572;41.642;25.370;2023-07-22T04:16:33;9.02;;;7.28;;
9072;SDS011;4572;41.642;25.370;2023-07-22T04:18:59;8.60;;;6.47;;
9072;SDS011;4572;41.642;25.370;2023-07-22T04:21:24;10.23;;;6.80;;
9072;SDS011;4572;41.642;25.370;2023-07-22T04:23:50;9.32;;;7.15;;
9072;SDS011;4572;41.642;25.370;2023-07-22T04:26:16;8.60;;;6.97;;
9072;SDS011;4572;41.642;25.370;2023-07-22T04:28:41;7.75;;;6.95;;
9072;SDS011;4572;41.642;25.370;2023-07-22T04:31:06;8.50;;;6.95;;
9072;SDS011;4572;41.642;25.370;2023-07-22T04:33:34;7.57;;;6.82;;
9072;SDS011;4572;41.642;25.370;2023-07-22T04:35:59;8.73;;;6.30;;
9072;SDS011;4572;41.642;25.370;2023-07-22T04:38:26;10.85;;;7.28;;
9072;SDS011;4572;41.642;25.370;2023-07-22T04:40:51;9.02;;;7.28;;
9072;SDS011;4572;41.642;25.370;2023-07-22T04:43:17;11.60;;;7.40;;
9072;SDS011;4572;41.642;25.370;2023-07-22T04:45:45;8.68;;;7.32;;
9072;SDS011;4572;41.642;25.370;2023-07-22T04:48:15;8.50;;;6.43;;
9072;SDS011;4572;41.642;25.370;2023-07-22T04:50:41;9.90;;;6.78;;
9072;SDS011;4572;41.642;25.370;2023-07-22T04:53:09;10.38;;;6.85;;
9072;SDS011;4572;41.642;25.370;2023-07-22T04:55:35;7.47;;;6.78;;
9072;SDS011;4572;41.642;25.370;2023-07-22T04:58:02;9.30;;;7.32;;
9072;SDS011;4572;41.642;25.370;2023-07-22T05:00:27;9.73;;;6.82;;
9072;SDS011;4572;41.642;25.370;2023-07-22T05:02:54;7.95;;;7.03;;
9072;SDS011;4572;41.642;25.370;2023-07-22T05:05:21;8.20;;;6.93;;
9072;SDS011;4572;41.642;25.370;2023-07-22T05:07:47;7.75;;;6.97;;
9072;SDS011;4572;41.642;25.370;2023-07-22T05:10:14;8.80;;;6.93;;
9072;SDS011;4572;41.642;25.370;2023-07-22T05:12:40;10.98;;;7.95;;
9072;SDS011;4572;41.642;25.370;2023-07-22T05:15:06;9.02;;;6.90;;
9072;SDS011;4572;41.642;25.370;2023-07-22T05:17:33;7.70;;;6.93;;
9072;SDS011;4572;41.642;25.370;2023-07-22T05:19:58;7.45;;;6.72;;
9072;SDS011;4572;41.642;25.370;2023-07-22T05:22:24;10.68;;;7.15;;
9072;SDS011;4572;41.642;25.370;2023-07-22T05:24:49;11.95;;;7.13;;
9072;SDS011;4572;41.642;25.370;2023-07-22T05:27:16;8.60;;;7.50;;
9072;SDS011;4572;41.642;25.370;2023-07-22T05:29:42;9.90;;;8.45;;
9072;SDS011;4572;41.642;25.370;2023-07-22T05:32:07;9.27;;;7.45;;
9072;SDS011;4572;41.642;25.370;2023-07-22T05:34:33;9.05;;;7.18;;
9072;SDS011;4572;41.642;25.370;2023-07-22T05:36:59;9.07;;;6.88;;
9072;SDS011;4572;41.642;25.370;2023-07-22T05:39:24;8.15;;;6.68;;
9072;SDS011;4572;41.642;25.370;2023-07-22T05:41:50;10.93;;;7.20;;
9072;SDS011;4572;41.642;25.370;2023-07-22T05:44:16;11.25;;;7.15;;
9072;SDS011;4572;41.642;25.370;2023-07-22T05:46:41;8.77;;;7.10;;
9072;SDS011;4572;41.642;25.370;2023-07-22T05:49:07;9.93;;;6.55;;
9072;SDS011;4572;41.642;25.370;2023-07-22T05:51:33;8.98;;;7.07;;
9072;SDS011;4572;41.642;25.370;2023-07-22T05:53:59;10.07;;;6.70;;
9072;SDS011;4572;41.642;25.370;2023-07-22T05:56:24;8.52;;;6.85;;
9072;SDS011;4572;41.642;25.370;2023-07-22T05:58:49;8.30;;;7.40;;
9072;SDS011;4572;41.642;25.370;2023-07-22T06:01:15;10.18;;;7.45;;
9072;SDS011;4572;41.642;25.370;2023-07-22T06:03:40;8.38;;;6.88;;
9072;SDS011;4572;41.642;25.370;2023-07-22T06:06:07;8.45;;;7.03;;
9072;SDS011;4572;41.642;25.370;2023-07-22T06:08:32;10.00;;;7.07;;
9072;SDS011;4572;41.642;25.370;2023-07-22T06:10:58;10.32;;;6.68;;
9072;SDS011;4572;41.642;25.370;2023-07-22T06:13:23;8.45;;;7.30;;
9072;SDS011;4572;41.642;25.370;2023-07-22T06:15:49;9.15;;;7.10;;
9072;SDS011;4572;41.642;25.370;2023-07-22T06:18:14;8.55;;;7.05;;
9072;SDS011;4572;41.642;25.370;2023-07-22T06:20:40;10.02;;;6.85;;
9072;SDS011;4572;41.642;25.370;2023-07-22T06:23:05;12.68;;;6.80;;
9072;SDS011;4572;41.642;25.370;2023-07-22T06:25:31;7.72;;;6.93;;
9072;SDS011;4572;41.642;25.370;2023-07-22T06:27:56;8.18;;;6.78;;
9072;SDS011;4572;41.642;25.370;2023-07-22T06:30:22;9.32;;;7.20;;
9072;SDS011;4572;41.642;25.370;2023-07-22T06:32:47;10.68;;;9.48;;
9072;SDS011;4572;41.642;25.370;2023-07-22T06:35:12;9.90;;;7.88;;
9072;SDS011;4572;41.642;25.370;2023-07-22T06:37:38;9.55;;;8.07;;
9072;SDS011;4572;41.642;25.370;2023-07-22T06:40:04;9.93;;;7.38;;
9072;SDS011;4572;41.642;25.370;2023-07-22T06:42:30;9.60;;;7.53;;
9072;SDS011;4572;41.642;25.370;2023-07-22T06:44:56;7.97;;;7.18;;
9072;SDS011;4572;41.642;25.370;2023-07-22T06:47:21;7.78;;;6.97;;
9072;SDS011;4572;41.642;25.370;2023-07-22T06:49:47;10.05;;;6.85;;
9072;SDS011;4572;41.642;25.370;2023-07-22T06:52:12;10.05;;;8.93;;
9072;SDS011;4572;41.642;25.370;2023-07-22T06:54:39;10.48;;;7.43;;
9072;SDS011;4572;41.642;25.370;2023-07-22T06:57:05;9.23;;;7.47;;
9072;SDS011;4572;41.642;25.370;2023-07-22T06:59:31;10.85;;;6.78;;
9072;SDS011;4572;41.642;25.370;2023-07-22T07:01:57;7.65;;;6.85;;
9072;SDS011;4572;41.642;25.370;2023-07-22T07:04:23;13.50;;;8.48;;
9072;SDS011;4572;41.642;25.370;2023-07-22T07:06:49;12.27;;;8.07;;
9072;SDS011;4572;41.642;25.370;2023-07-22T07:09:15;10.07;;;7.60;;
9072;SDS011;4572;41.642;25.370;2023-07-22T07:11:41;8.38;;;7.40;;
9072;SDS011;4572;41.642;25.370;2023-07-22T07:14:06;8.13;;;7.03;;
9072;SDS011;4572;41.642;25.370;2023-07-22T07:16:32;9.63;;;7.70;;
9072;SDS011;4572;41.642;25.370;2023-07-22T07:18:59;7.75;;;6.78;;
9072;SDS011;4572;41.642;25.370;2023-07-22T07:21:25;9.90;;;7.60;;
9072;SDS011;4572;41.642;25.370;2023-07-22T07:23:51;14.75;;;7.75;;
9072;SDS011;4572;41.642;25.370;2023-07-22T07:26:17;7.75;;;6.97;;
9072;SDS011;4572;41.642;25.370;2023-07-22T07:28:43;10.50;;;7.53;;
9072;SDS011;4572;41.642;25.370;2023-07-22T07:31:09;9.20;;;7.18;;
9072;SDS011;4572;41.642;25.370;2023-07-22T07:33:35;10.65;;;7.57;;
9072;SDS011;4572;41.642;25.370;2023-07-22T07:36:01;16.67;;;7.82;;
9072;SDS011;4572;41.642;25.370;2023-07-22T07:38:26;9.77;;;8.20;;
9072;SDS011;4572;41.642;25.370;2023-07-22T07:40:52;10.55;;;7.40;;
9072;SDS011;4572;41.642;25.370;2023-07-22T07:43:19;10.85;;;7.57;;
9072;SDS011;4572;41.642;25.370;2023-07-22T07:45:44;8.32;;;7.28;;
9072;SDS011;4572;41.642;25.370;2023-07-22T07:48:10;11.30;;;7.20;;
9072;SDS011;4572;41.642;25.370;2023-07-22T07:50:35;12.98;;;8.32;;
9072;SDS011;4572;41.642;25.370;2023-07-22T07:53:01;8.05;;;6.43;;
9072;SDS011;4572;41.642;25.370;2023-07-22T07:55:26;7.82;;;7.03;;
9072;SDS011;4572;41.642;25.370;2023-07-22T07:57:52;8.75;;;6.90;;
9072;SDS011;4572;41.642;25.370;2023-07-22T08:00:17;7.65;;;6.90;;
9072;SDS011;4572;41.642;25.370;2023-07-22T08:02:45;10.02;;;5.65;;
9072;SDS011;4572;41.642;25.370;2023-07-22T08:05:11;6.47;;;5.88;;
9072;SDS011;4572;41.642;25.370;2023-07-22T08:07:37;7.07;;;6.22;;
9072;SDS011;4572;41.642;25.370;2023-07-22T08:10:04;7.55;;;5.80;;
9072;SDS011;4572;41.642;25.370;2023-07-22T08:12:32;10.05;;;7.45;;
9072;SDS011;4572;41.642;25.370;2023-07-22T08:14:58;9.18;;;6.55;;
9072;SDS011;4572;41.642;25.370;2023-07-22T08:17:24;8.00;;;6.82;;
9072;SDS011;4572;41.642;25.370;2023-07-22T08:19:49;8.70;;;6.00;;
9072;SDS011;4572;41.642;25.370;2023-07-22T08:22:14;9.00;;;5.80;;
9072;SDS011;4572;41.642;25.370;2023-07-22T08:24:40;8.13;;;6.72;;
9072;SDS011;4572;41.642;25.370;2023-07-22T08:27:06;6.45;;;5.85;;
9072;SDS011;4572;41.642;25.370;2023-07-22T08:29:31;10.38;;;6.50;;
9072;SDS011;4572;41.642;25.370;2023-07-22T08:31:58;7.72;;;5.93;;
9072;SDS011;4572;41.642;25.370;2023-07-22T08:34:23;6.57;;;5.90;;
9072;SDS011;4572;41.642;25.370;2023-07-22T08:36:49;8.63;;;6.45;;
9072;SDS011;4572;41.642;25.370;2023-07-22T08:39:14;8.15;;;6.47;;
9072;SDS011;4572;41.642;25.370;2023-07-22T08:41:39;7.90;;;6.72;;
9072;SDS011;4572;41.642;25.370;2023-07-22T08:44:06;11.63;;;7.93;;
9072;SDS011;4572;41.642;25.370;2023-07-22T08:46:33;7.22;;;5.82;;
9072;SDS011;4572;41.642;25.370;2023-07-22T08:48:59;7.72;;;5.68;;
9072;SDS011;4572;41.642;25.370;2023-07-22T08:51:25;7.00;;;5.95;;
9072;SDS011;4572;41.642;25.370;2023-07-22T08:53:55;8.80;;;6.18;;
9072;SDS011;4572;41.642;25.370;2023-07-22T08:56:23;7.85;;;6.40;;
9072;SDS011;4572;41.642;25.370;2023-07-22T08:58:49;7.38;;;6.03;;
9072;SDS011;4572;41.642;25.370;2023-07-22T09:01:18;7.43;;;5.55;;
9072;SDS011;4572;41.642;25.370;2023-07-22T09:03:45;7.25;;;6.18;;
9072;SDS011;4572;41.642;25.370;2023-07-22T09:06:12;12.43;;;6.93;;
9072;SDS011;4572;41.642;25.370;2023-07-22T09:08:38;7.60;;;6.30;;
9072;SDS011;4572;41.642;25.370;2023-07-22T09:11:04;8.55;;;6.13;;
9072;SDS011;4572;41.642;25.370;2023-07-22T09:13:29;8.52;;;5.78;;
9072;SDS011;4572;41.642;25.370;2023-07-22T09:15:59;8.93;;;5.82;;
9072;SDS011;4572;41.642;25.370;2023-07-22T09:18:25;7.50;;;5.53;;
9072;SDS011;4572;41.642;25.370;2023-07-22T09:20:51;9.75;;;6.38;;
9072;SDS011;4572;41.642;25.370;2023-07-22T09:23:16;8.25;;;5.47;;
9072;SDS011;4572;41.642;25.370;2023-07-22T09:25:42;8.18;;;5.75;;
9072;SDS011;4572;41.642;25.370;2023-07-22T09:28:08;9.20;;;6.20;;
9072;SDS011;4572;41.642;25.370;2023-07-22T09:30:35;5.75;;;5.15;;
9072;SDS011;4572;41.642;25.370;2023-07-22T09:33:03;7.55;;;5.65;;
9072;SDS011;4572;41.642;25.370;2023-07-22T09:35:31;8.88;;;5.53;;
9072;SDS011;4572;41.642;25.370;2023-07-22T09:38:09;7.70;;;5.15;;
9072;SDS011;4572;41.642;25.370;2023-07-22T09:40:34;10.38;;;5.60;;
9072;SDS011;4572;41.642;25.370;2023-07-22T09:43:03;7.07;;;5.05;;
9072;SDS011;4572;41.642;25.370;2023-07-22T09:45:29;6.05;;;5.10;;
9072;SDS011;4572;41.642;25.370;2023-07-22T09:47:55;6.65;;;5.25;;
9072;SDS011;4572;41.642;25.370;2023-07-22T09:50:25;8.35;;;5.22;;
9072;SDS011;4572;41.642;25.370;2023-07-22T09:52:55;6.30;;;5.32;;
9072;SDS011;4572;41.642;25.370;2023-07-22T09:55:23;6.28;;;4.72;;
9072;SDS011;4572;41.642;25.370;2023-07-22T09:57:51;8.48;;;5.13;;
9072;SDS011;4572;41.642;25.370;2023-07-22T10:00:18;8.70;;;5.35;;
9072;SDS011;4572;41.642;25.370;2023-07-22T10:02:45;6.18;;;4.88;;
9072;SDS011;4572;41.642;25.370;2023-07-22T10:05:13;6.15;;;5.00;;
9072;SDS011;4572;41.642;25.370;2023-07-22T10:07:45;9.13;;;5.38;;
9072;SDS011;4572;41.642;25.370;2023-07-22T10:10:15;6.95;;;5.10;;
9072;SDS011;4572;41.642;25.370;2023-07-22T10:12:44;6.53;;;5.15;;
9072;SDS011;4572;41.642;25.370;2023-07-22T10:15:12;9.52;;;5.57;;
9072;SDS011;4572;41.642;25.370;2023-07-22T10:17:42;8.25;;;4.90;;
9072;SDS011;4572;41.642;25.370;2023-07-22T10:20:09;7.05;;;4.60;;
9072;SDS011;4572;41.642;25.370;2023-07-22T10:22:44;5.18;;;4.45;;
9072;SDS011;4572;41.642;25.370;2023-07-22T10:25:10;8.32;;;4.70;;
9072;SDS011;4572;41.642;25.370;2023-07-22T10:27:38;5.68;;;4.35;;
9072;SDS011;4572;41.642;25.370;2023-07-22T10:30:11;6.43;;;5.22;;
9072;SDS011;4572;41.642;25.370;2023-07-22T10:32:38;6.38;;;4.70;;
9072;SDS011;4572;41.642;25.370;2023-07-22T10:35:09;10.00;;;4.78;;
9072;SDS011;4572;41.642;25.370;2023-07-22T10:37:36;7.10;;;4.47;;
9072;SDS011;4572;41.642;25.370;2023-07-22T10:40:19;7.30;;;4.60;;
9072;SDS011;4572;41.642;25.370;2023-07-22T10:42:52;7.03;;;4.50;;
9072;SDS011;4572;41.642;25.370;2023-07-22T10:45:31;5.95;;;4.68;;
9072;SDS011;4572;41.642;25.370;2023-07-22T10:50:44;6.38;;;4.40;;
9072;SDS011;4572;41.642;25.370;2023-07-22T10:58:31;5.05;;;4.55;;
9072;SDS011;4572;41.642;25.370;2023-07-22T11:01:46;8.13;;;5.03;;
9072;SDS011;4572;41.642;25.370;2023-07-22T11:04:05;9.85;;;4.90;;
9072;SDS011;4572;41.642;25.370;2023-07-22T11:06:31;8.75;;;5.03;;
9072;SDS011;4572;41.642;25.370;2023-07-22T11:08:56;6.90;;;4.70;;
9072;SDS011;4572;41.642;25.370;2023-07-22T11:14:33;5.78;;;4.55;;
9072;SDS011;4572;41.642;25.370;2023-07-22T11:17:00;9.40;;;4.88;;
9072;SDS011;4572;41.642;25.370;2023-07-22T11:19:30;6.63;;;3.75;;
9072;SDS011;4572;41.642;25.370;2023-07-22T11:21:57;7.68;;;3.50;;
9072;SDS011;4572;41.642;25.370;2023-07-22T11:24:23;6.68;;;3.63;;
9072;SDS011;4572;41.642;25.370;2023-07-22T11:26:49;14.82;;;4.30;;
9072;SDS011;4572;41.642;25.370;2023-07-22T11:29:16;10.95;;;5.15;;
9072;SDS011;4572;41.642;25.370;2023-07-22T11:31:45;7.90;;;5.30;;
9072;SDS011;4572;41.642;25.370;2023-07-22T11:34:12;7.43;;;4.53;;
9072;SDS011;4572;41.642;25.370;2023-07-22T11:36:39;10.45;;;4.68;;
9072;SDS011;4572;41.642;25.370;2023-07-22T11:39:06;7.25;;;4.88;;
9072;SDS011;4572;41.642;25.370;2023-07-22T11:41:35;11.05;;;4.38;;
9072;SDS011;4572;41.642;25.370;2023-07-22T11:44:02;12.18;;;4.35;;
9072;SDS011;4572;41.642;25.370;2023-07-22T11:46:47;10.85;;;6.25;;
9072;SDS011;4572;41.642;25.370;2023-07-22T11:49:21;7.53;;;4.43;;
9072;SDS011;4572;41.642;25.370;2023-07-22T11:51:47;7.60;;;4.88;;
9072;SDS011;4572;41.642;25.370;2023-07-22T11:54:13;8.80;;;4.85;;
9072;SDS011;4572;41.642;25.370;2023-07-22T11:56:40;5.82;;;4.75;;
9072;SDS011;4572;41.642;25.370;2023-07-22T11:59:06;8.93;;;4.13;;
9072;SDS011;4572;41.642;25.370;2023-07-22T12:01:33;7.85;;;4.45;;
9072;SDS011;4572;41.642;25.370;2023-07-22T12:03:59;9.75;;;4.18;;
9072;SDS011;4572;41.642;25.370;2023-07-22T12:06:25;5.55;;;4.15;;
9072;SDS011;4572;41.642;25.370;2023-07-22T12:08:51;14.32;;;4.30;;
9072;SDS011;4572;41.642;25.370;2023-07-22T12:11:21;6.32;;;4.18;;
9072;SDS011;4572;41.642;25.370;2023-07-22T12:16:33;8.20;;;5.00;;
9072;SDS011;4572;41.642;25.370;2023-07-22T12:19:02;7.68;;;4.93;;
9072;SDS011;4572;41.642;25.370;2023-07-22T12:21:28;8.65;;;4.88;;
9072;SDS011;4572;41.642;25.370;2023-07-22T12:23:53;10.25;;;4.85;;
9072;SDS011;4572;41.642;25.370;2023-07-22T12:26:19;6.55;;;4.43;;
9072;SDS011;4572;41.642;25.370;2023-07-22T12:28:45;7.80;;;4.35;;
9072;SDS011;4572;41.642;25.370;2023-07-22T12:31:11;11.90;;;4.80;;
9072;SDS011;4572;41.642;25.370;2023-07-22T12:33:36;7.07;;;4.35;;
9072;SDS011;4572;41.642;25.370;2023-07-22T12:36:02;7.55;;;4.53;;
9072;SDS011;4572;41.642;25.370;2023-07-22T12:38:27;8.82;;;4.43;;
9072;SDS011;4572;41.642;25.370;2023-07-22T12:40:53;7.80;;;4.45;;
9072;SDS011;4572;41.642;25.370;2023-07-22T12:43:18;7.78;;;4.97;;
9072;SDS011;4572;41.642;25.370;2023-07-22T12:45:44;7.22;;;4.72;;
9072;SDS011;4572;41.642;25.370;2023-07-22T12:48:09;6.40;;;4.28;;
9072;SDS011;4572;41.642;25.370;2023-07-22T12:50:35;9.15;;;4.88;;
9072;SDS011;4572;41.642;25.370;2023-07-22T12:53:00;5.47;;;3.80;;
9072;SDS011;4572;41.642;25.370;2023-07-22T12:55:27;7.05;;;4.13;;
9072;SDS011;4572;41.642;25.370;2023-07-22T12:57:52;10.10;;;4.63;;
9072;SDS011;4572;41.642;25.370;2023-07-22T13:00:18;5.68;;;3.83;;
9072;SDS011;4572;41.642;25.370;2023-07-22T13:02:44;10.93;;;4.53;;
9072;SDS011;4572;41.642;25.370;2023-07-22T13:05:09;9.30;;;5.55;;
9072;SDS011;4572;41.642;25.370;2023-07-22T13:07:35;9.52;;;4.93;;
9072;SDS011;4572;41.642;25.370;2023-07-22T13:10:01;14.65;;;5.65;;
9072;SDS011;4572;41.642;25.370;2023-07-22T13:12:40;15.00;;;5.15;;
9072;SDS011;4572;41.642;25.370;2023-07-22T13:15:05;12.50;;;5.15;;
9072;SDS011;4572;41.642;25.370;2023-07-22T13:17:31;12.02;;;6.00;;
9072;SDS011;4572;41.642;25.370;2023-07-22T13:19:57;11.80;;;7.13;;
9072;SDS011;4572;41.642;25.370;2023-07-22T13:22:22;11.65;;;5.78;;
9072;SDS011;4572;41.642;25.370;2023-07-22T13:24:47;13.68;;;6.28;;
9072;SDS011;4572;41.642;25.370;2023-07-22T13:27:15;12.63;;;6.07;;
9072;SDS011;4572;41.642;25.370;2023-07-22T13:29:40;8.73;;;5.93;;
9072;SDS011;4572;41.642;25.370;2023-07-22T13:32:06;9.70;;;5.25;;
9072;SDS011;4572;41.642;25.370;2023-07-22T13:34:32;10.43;;;6.30;;
9072;SDS011;4572;41.642;25.370;2023-07-22T13:36:57;9.95;;;5.38;;
9072;SDS011;4572;41.642;25.370;2023-07-22T13:39:23;9.68;;;5.68;;
9072;SDS011;4572;41.642;25.370;2023-07-22T13:41:49;9.95;;;6.28;;
9072;SDS011;4572;41.642;25.370;2023-07-22T13:44:15;10.02;;;5.90;;
9072;SDS011;4572;41.642;25.370;2023-07-22T13:46:41;10.27;;;6.55;;
9072;SDS011;4572;41.642;25.370;2023-07-22T13:49:07;9.05;;;5.45;;
9072;SDS011;4572;41.642;25.370;2023-07-22T13:51:32;15.30;;;6.78;;
9072;SDS011;4572;41.642;25.370;2023-07-22T13:53:58;9.93;;;5.40;;
9072;SDS011;4572;41.642;25.370;2023-07-22T13:56:23;10.80;;;5.82;;
9072;SDS011;4572;41.642;25.370;2023-07-22T13:58:49;14.73;;;6.38;;
9072;SDS011;4572;41.642;25.370;2023-07-22T14:01:15;8.15;;;5.45;;
9072;SDS011;4572;41.642;25.370;2023-07-22T14:03:40;7.18;;;5.30;;
9072;SDS011;4572;41.642;25.370;2023-07-22T14:06:06;8.25;;;6.13;;
9072;SDS011;4572;41.642;25.370;2023-07-22T14:08:31;12.43;;;5.50;;
9072;SDS011;4572;41.642;25.370;2023-07-22T14:10:58;7.35;;;5.32;;
9072;SDS011;4572;41.642;25.370;2023-07-22T14:13:24;8.88;;;5.47;;
9072;SDS011;4572;41.642;25.370;2023-07-22T14:15:49;8.70;;;6.00;;
9072;SDS011;4572;41.642;25.370;2023-07-22T14:18:15;9.68;;;6.50;;
9072;SDS011;4572;41.642;25.370;2023-07-22T14:20:45;8.40;;;5.95;;
9072;SDS011;4572;41.642;25.370;2023-07-22T14:23:11;9.68;;;5.90;;
9072;SDS011;4572;41.642;25.370;2023-07-22T14:25:37;8.65;;;5.90;;
9072;SDS011;4572;41.642;25.370;2023-07-22T14:28:02;10.70;;;5.95;;
9072;SDS011;4572;41.642;25.370;2023-07-22T14:30:28;9.77;;;5.85;;
9072;SDS011;4572;41.642;25.370;2023-07-22T14:32:53;12.65;;;6.05;;
9072;SDS011;4572;41.642;25.370;2023-07-22T14:35:20;10.68;;;6.10;;
9072;SDS011;4572;41.642;25.370;2023-07-22T14:37:46;13.75;;;6.53;;
9072;SDS011;4572;41.642;25.370;2023-07-22T14:40:12;9.75;;;6.15;;
9072;SDS011;4572;41.642;25.370;2023-07-22T14:42:37;11.85;;;6.18;;
9072;SDS011;4572;41.642;25.370;2023-07-22T14:45:03;7.50;;;6.32;;
9072;SDS011;4572;41.642;25.370;2023-07-22T14:47:30;10.68;;;6.82;;
9072;SDS011;4572;41.642;25.370;2023-07-22T14:49:57;13.25;;;6.53;;
9072;SDS011;4572;41.642;25.370;2023-07-22T14:52:22;7.88;;;6.30;;
9072;SDS011;4572;41.642;25.370;2023-07-22T14:54:48;12.00;;;6.97;;
9072;SDS011;4572;41.642;25.370;2023-07-22T14:57:17;18.95;;;9.75;;
9072;SDS011;4572;41.642;25.370;2023-07-22T14:59:43;13.38;;;7.20;;
9072;SDS011;4572;41.642;25.370;2023-07-22T15:02:09;13.30;;;7.85;;
9072;SDS011;4572;41.642;25.370;2023-07-22T15:04:35;8.55;;;5.80;;
9072;SDS011;4572;41.642;25.370;2023-07-22T15:07:01;10.35;;;6.80;;